Latest Coastal Weather Observations for Bougainville Reef

IDQ60701

Issued at 3:21 am EST Monday 27 April 2015 (issued every 10 minutes, with the page automatically refreshed every 10 minutes)

About coastal observations | Map of coastal stations | Coastal observations for QLD | Marine services | Other Formats
Station Details ID: 200840 Name: BOUGAINVILLE REEF Lat: -15.49 Lon: 147.12 Height: 0.0 m
Data from the previous 72 hours. | See also: Recent months for locations in Queensland
Date/Time
EST
Temp

°C
Wind Pressure Rain
since 9am
mm
Weather Cloud Vis
km
Sea
Height
m
Swell
Dir
 
Speed
knots
Gust
knots
hPa Trend Height
m
Period
s
Dir
27/03:00am 26.1 SE 19 21 1012.9 - - - - - - - - -
27/02:49am 26.0 SE 18 - 1012.9 - - - - - - - - -
27/02:30am 26.1 SE 18 21 1013.1 - - - - - - - - -
27/02:00am 26.1 SE 19 22 1013.1 - - - - - - - - -
27/01:49am 26.1 SSE 19 - 1013.1 - - - - - - - - -
27/01:30am 26.0 SSE 19 23 1013.3 - - - - - - - - -
27/01:00am 26.1 SSE 19 22 1013.7 - - - - - - - - -
27/12:49am 26.1 SSE 19 - 1013.7 - - - - - - - - -
27/12:30am 26.2 SSE 19 23 1014.0 - - - - - - - - -
27/12:00am 26.2 SE 19 21 1014.3 - - - - - - - - -
 
Date/Time
EST
Temp

°C
Wind Pressure Rain
since 9am
mm
Weather Cloud Vis
km
Sea
Height
m
Swell
Dir
 
Speed
knots
Gust
knots
hPa Trend Height
m
Period
s
Dir
26/11:49pm 26.2 SE 18 - 1014.3 - - - - - - - - -
26/11:30pm 26.2 SE 20 22 1014.4 - - - - - - - - -
26/11:00pm 26.3 SE 19 22 1014.4 - - - - - - - - -
26/10:30pm 26.4 SSE 19 22 1014.5 - - - - - - - - -
26/10:00pm 26.6 SSE 20 23 1014.5 - - - - - - - - -
26/09:30pm 26.6 SSE 20 23 1014.6 - - - - - - - - -
26/09:00pm 26.7 SSE 21 23 1014.2 - - - - - - - - -
26/08:30pm 26.7 SSE 20 23 1014.1 - - - - - - - - -
26/08:00pm 26.6 SSE 20 23 1013.6 - - - - - - - - -
26/07:30pm 26.5 SSE 20 24 1013.4 - - - - - - - - -
26/07:00pm 26.5 SSE 20 24 1012.7 - - - - - - - - -
26/06:30pm 26.6 SSE 21 25 1012.6 - - - - - - - - -
26/06:00pm 26.6 SSE 22 25 1012.1 - - - - - - - - -
26/05:30pm 26.6 SSE 22 26 1012.2 - - - - - - - - -
26/05:00pm 26.5 SSE 17 19 1011.8 - - - - - - - - -
26/04:30pm 26.5 SSE 16 19 1011.7 - - - - - - - - -
26/04:00pm 26.6 SSE 15 18 1011.5 - - - - - - - - -
26/03:30pm 26.4 SSE 16 18 1011.5 - - - - - - - - -
26/03:00pm 26.1 S 14 18 1011.5 - - - - - - - - -
26/02:30pm 26.1 SSE 15 18 1011.6 - - - - - - - - -
26/02:00pm 26.2 S 14 17 1011.7 - - - - - - - - -
26/01:49pm 26.1 S 14 - 1011.6 - - - - - - - - -
26/01:30pm 26.2 SSE 14 17 1011.7 - - - - - - - - -
26/01:00pm 26.1 SSE 14 16 1012.0 - - - - - - - - -
26/12:49pm 26.0 SSE 14 - 1012.0 - - - - - - - - -
26/11:49am 25.9 SSE 14 - 1012.8 - - - - - - - - -
26/11:00am 25.8 SSE 13 17 1013.4 - - - - - - - - -
26/10:49am 26.0 S 12 - 1013.4 - - - - - - - - -
26/10:30am 25.9 SSE 12 15 1013.7 - - - - - - - - -
26/10:00am 25.8 SSE 12 15 1013.8 - - - - - - - - -
26/09:49am 25.8 SSE 11 - 1013.6 - - - - - - - - -
26/09:30am 25.8 S 11 14 1013.7 - - - - - - - - -
26/09:00am 25.8 SSE 12 15 1013.5 - - - - - - - - -
26/08:49am 25.8 SSE 12 - 1013.3 - - - - - - - - -
26/08:30am 25.8 SSE 12 14 1013.2 - - - - - - - - -
26/08:00am 25.8 SSE 9 11 1013.1 - - - - - - - - -
26/07:49am 25.8 SSE 8 - 1013.0 - - - - - - - - -
26/07:00am 25.6 SE 7 9 1012.5 - - - - - - - - -
26/06:30am 25.5 SE 7 9 1012.4 - - - - - - - - -
26/06:00am 25.4 ESE 7 9 1011.7 - - - - - - - - -
26/05:30am 25.5 SE 6 7 1011.8 - - - - - - - - -
26/05:00am 25.5 ESE 7 9 1011.2 - - - - - - - - -
26/04:30am 25.5 ESE 7 9 1011.2 - - - - - - - - -
26/04:00am 25.6 ESE 7 8 1010.7 - - - - - - - - -
26/03:30am 25.6 ESE 8 9 1010.8 - - - - - - - - -
26/03:00am 25.6 ESE 8 11 1010.7 - - - - - - - - -
26/02:30am 25.6 ESE 8 10 1010.8 - - - - - - - - -
26/02:00am 25.6 ESE 9 10 1010.9 - - - - - - - - -
26/01:30am 25.7 ESE 9 11 1011.0 - - - - - - - - -
26/01:00am 25.8 SE 10 11 1011.5 - - - - - - - - -
26/12:30am 25.8 SE 10 12 1011.7 - - - - - - - - -
26/12:00am 25.9 SE 9 11 1012.2 - - - - - - - - -
 
Date/Time
EST
Temp

°C
Wind Pressure Rain
since 9am
mm
Weather Cloud Vis
km
Sea
Height
m
Swell
Dir
 
Speed
knots
Gust
knots
hPa Trend Height
m
Period
s
Dir
25/11:30pm 25.9 SE 8 9 1012.5 - - - - - - - - -
25/11:00pm 25.9 SE 10 11 1012.4 - - - - - - - - -
25/10:30pm 25.9 SSE 10 11 1012.7 - - - - - - - - -
25/10:00pm 25.9 S 9 11 1012.9 - - - - - - - - -
25/09:30pm 25.9 SSE 10 12 1013.0 - - - - - - - - -
25/09:00pm 26.0 S 10 13 1012.9 - - - - - - - - -
25/08:30pm 25.9 S 11 14 1012.8 - - - - - - - - -
25/08:00pm 26.0 S 10 14 1012.3 - - - - - - - - -
25/07:30pm 26.0 S 10 13 1012.0 - - - - - - - - -
25/07:00pm 26.0 S 10 11 1011.4 - - - - - - - - -
25/06:30pm 26.0 S 9 12 1011.2 - - - - - - - - -
25/06:00pm 26.1 S 9 13 1010.7 - - - - - - - - -
25/05:30pm 26.2 S 8 11 1010.7 - - - - - - - - -
25/05:00pm 26.2 SSE 6 8 1010.5 - - - - - - - - -
25/04:30pm 26.1 S 6 8 1010.5 - - - - - - - - -
25/04:00pm 26.1 SSE 5 7 1010.1 - - - - - - - - -
25/03:49pm 26.1 SE 7 - 1009.9 - - - - - - - - -
25/03:30pm 26.0 SSE 6 7 1009.9 - - - - - - - - -
25/03:00pm 26.0 SSE 6 8 1009.9 - - - - - - - - -
25/02:49pm 26.0 S 7 - 1009.8 - - - - - - - - -
25/02:30pm 25.9 SSE 7 9 1009.9 - - - - - - - - -
25/02:00pm 25.9 SSE 5 8 1010.1 - - - - - - - - -
25/01:30pm 25.9 SSE 5 7 1010.6 - - - - - - - - -
25/01:00pm 25.9 SSE 5 6 1010.7 - - - - - - - - -
25/12:30pm 25.9 SE 5 7 1010.9 - - - - - - - - -
25/12:00pm 25.9 ESE 5 7 1011.1 - - - - - - - - -
25/11:49am 25.7 SE 5 - 1011.2 - - - - - - - - -
25/11:30am 25.8 SE 5 7 1011.4 - - - - - - - - -
25/11:00am 25.7 SSE 6 9 1011.8 - - - - - - - - -
25/10:30am 25.8 SSE 5 7 1012.2 - - - - - - - - -
25/10:00am 25.7 SE 7 8 1012.2 - - - - - - - - -
25/09:30am 25.8 ESE 7 9 1012.2 - - - - - - - - -
25/09:00am 25.7 SSE 7 8 1011.7 - - - - - - - - -
25/08:30am 25.7 SE 8 9 1011.6 - - - - - - - - -
25/08:00am 25.7 SE 8 9 1011.3 - - - - - - - - -
25/07:30am 25.7 SE 8 9 1011.2 - - - - - - - - -
25/07:00am 25.6 ESE 8 10 1010.6 - - - - - - - - -
25/06:30am 25.5 ESE 9 11 1010.5 - - - - - - - - -
25/06:00am 25.5 ESE 8 9 1010.1 - - - - - - - - -
25/05:30am 25.5 ESE 8 10 1010.1 - - - - - - - - -
25/05:00am 25.5 ESE 8 11 1009.6 - - - - - - - - -
25/04:30am 25.4 ESE 10 12 1009.7 - - - - - - - - -
25/04:00am 25.6 ESE 10 12 1009.5 - - - - - - - - -
25/03:30am 25.6 ESE 11 13 1009.5 - - - - - - - - -
25/03:00am 25.6 ESE 11 13 1009.4 - - - - - - - - -
25/02:30am 25.5 ESE 10 11 1009.6 - - - - - - - - -
25/02:00am 25.5 ESE 11 12 1009.5 - - - - - - - - -
25/01:30am 25.5 ESE 11 13 1009.7 - - - - - - - - -
25/01:00am 25.5 ESE 11 13 1010.0 - - - - - - - - -
25/12:30am 25.5 ESE 12 14 1010.1 - - - - - - - - -
25/12:00am 25.6 ESE 12 14 1010.1 - - - - - - - - -
 
Date/Time
EST
Temp

°C
Wind Pressure Rain
since 9am
mm
Weather Cloud Vis
km
Sea
Height
m
Swell
Dir
 
Speed
knots
Gust
knots
hPa Trend Height
m
Period
s
Dir
24/11:30pm 25.4 ESE 11 12 1010.3 - - - - - - - - -
24/11:00pm 25.5 ESE 11 13 1010.5 - - - - - - - - -
24/10:30pm 25.5 ESE 11 13 1010.7 - - - - - - - - -
24/10:00pm 25.5 ESE 11 13 1010.7 - - - - - - - - -
24/09:30pm 25.6 ESE 11 13 1010.9 - - - - - - - - -
24/09:00pm 25.5 SE 9 12 1010.9 - - - - - - - - -
24/08:30pm 25.5 ESE 8 10 1010.9 - - - - - - - - -
24/08:00pm 25.5 SE 7 9 1010.7 - - - - - - - - -
24/07:30pm 25.6 SE 7 9 1010.4 - - - - - - - - -
24/07:00pm 25.5 SSE 7 7 1009.9 - - - - - - - - -
24/06:30pm 25.5 SSE 7 8 1009.9 - - - - - - - - -
24/06:00pm 25.5 SSE 8 10 1009.5 - - - - - - - - -
24/05:30pm 25.7 S 7 8 1009.5 - - - - - - - - -
24/05:00pm 25.6 S 8 10 1009.3 - - - - - - - - -
24/04:30pm 25.7 S 7 10 1009.1 - - - - - - - - -
24/04:00pm 25.8 S 8 9 1008.8 - - - - - - - - -
24/03:30pm 25.7 S 10 13 1008.8 - - - - - - - - -
24/03:00pm 25.6 S 9 12 1009.0 - - - - - - - - -
24/02:30pm 25.6 S 9 11 1009.2 - - - - - - - - -
24/02:00pm 25.5 SSW 8 10 1009.4 - - - - - - - - -
24/01:30pm 25.6 S 8 11 1009.7 - - - - - - - - -
24/01:00pm 25.6 SSW 9 11 1010.1 - - - - - - - - -
24/12:30pm 25.6 S 9 11 1010.3 - - - - - - - - -
24/12:00pm 25.5 S 9 11 1010.7 - - - - - - - - -
24/11:30am 25.6 SSE 10 11 1011.1 - - - - - - - - -
24/11:00am 25.5 SSE 9 12 1011.2 - - - - - - - - -
24/10:30am 25.7 SSE 9 11 1011.6 - - - - - - - - -
24/10:00am 25.6 SE 11 13 1011.5 - - - - - - - - -
24/09:30am 25.6 SE 12 14 1011.5 - - - - - - - - -
24/09:00am 25.5 SSE 12 13 1011.3 - - - - - - - - -
24/08:30am 25.6 SE 11 14 1011.3 - - - - - - - - -
24/08:00am 25.6 SE 12 14 1011.0 - - - - - - - - -
24/07:30am 25.5 SE 12 14 1010.9 - - - - - - - - -
24/07:00am 25.3 SE 13 14 1010.2 - - - - - - - - -
24/06:30am 25.3 SE 13 15 1010.0 - - - - - - - - -
24/06:00am 25.2 SE 13 15 1009.7 - - - - - - - - -
24/05:30am 25.2 ESE 13 15 1009.7 - - - - - - - - -
24/05:00am 25.2 ESE 12 13 1009.7 - - - - - - - - -
24/04:30am 25.2 ESE 10 13 1009.9 - - - - - - - - -
24/04:00am 25.3 SE 10 11 1009.8 - - - - - - - - -
24/03:30am 25.3 SE 11 13 1009.9 - - - - - - - - -

Other Formats:

Comma delimited format used in spreadsheet applications
http://www.bom.gov.au/fwo/IDQ60701/IDQ60701.95288.axf

JavaScript Object Notation format (JSON) in row-major order
http://www.bom.gov.au/fwo/IDQ60701/IDQ60701.95288.json